createdAt,value
2017-08-05T00:00:25.462Z,2
2017-08-05T00:01:28.294Z,2
2017-08-05T00:02:30.781Z,2
2017-08-05T00:03:33.607Z,2
2017-08-05T00:04:36.096Z,2
2017-08-05T00:05:38.589Z,2
2017-08-05T00:06:41.425Z,2
2017-08-05T00:07:43.912Z,2
2017-08-05T00:08:46.412Z,2
2017-08-05T00:09:48.898Z,2
2017-08-05T00:10:51.396Z,2
2017-08-05T00:11:54.207Z,2
2017-08-05T00:12:57.049Z,2
2017-08-05T00:13:59.868Z,2
2017-08-05T00:15:02.699Z,2
2017-08-05T00:16:05.553Z,2
2017-08-05T00:17:08.043Z,2
2017-08-05T00:18:10.549Z,2
2017-08-05T00:19:13.032Z,2
2017-08-05T00:20:15.523Z,2
2017-08-05T00:21:17.986Z,2
2017-08-05T00:22:20.843Z,2.1
2017-08-05T00:23:23.344Z,2
2017-08-05T00:24:25.847Z,2
2017-08-05T00:25:28.330Z,2
2017-08-05T00:26:31.159Z,2
2017-08-05T00:27:33.649Z,2
2017-08-05T00:28:36.161Z,2
2017-08-05T00:29:39.693Z,2
2017-08-05T00:30:42.185Z,2
2017-08-05T00:31:44.697Z,2.1
2017-08-05T00:32:47.524Z,2
2017-08-05T00:33:50.024Z,2
2017-08-05T00:34:52.497Z,2
2017-08-05T00:35:54.998Z,1.9
2017-08-05T00:36:57.485Z,2
2017-08-05T00:37:59.960Z,2
2017-08-05T00:39:02.793Z,2
2017-08-05T00:40:05.277Z,2
2017-08-05T00:41:08.460Z,2
2017-08-05T00:42:11.285Z,2
2017-08-05T00:43:13.763Z,2
2017-08-05T00:44:16.586Z,2
2017-08-05T00:45:19.098Z,2
2017-08-05T00:46:21.567Z,2
2017-08-05T00:47:24.085Z,2
2017-08-05T00:48:26.569Z,2
2017-08-05T00:49:29.412Z,2
2017-08-05T00:50:32.231Z,2
2017-08-05T00:51:34.730Z,2
2017-08-05T00:52:37.543Z,2
2017-08-05T00:53:40.055Z,2
2017-08-05T00:54:42.524Z,2
2017-08-05T00:55:45.022Z,2
2017-08-05T00:56:47.850Z,2
2017-08-05T00:57:50.334Z,2
2017-08-05T00:58:53.149Z,2
2017-08-05T00:59:55.988Z,1.9
2017-08-05T01:00:58.480Z,2
2017-08-05T01:02:00.959Z,2
2017-08-05T01:03:04.119Z,2
2017-08-05T01:04:06.657Z,2
2017-08-05T01:05:09.144Z,2
2017-08-05T01:06:11.626Z,2
2017-08-05T01:07:14.802Z,2
2017-08-05T01:08:17.289Z,2
2017-08-05T01:09:19.764Z,2
2017-08-05T01:10:22.255Z,2
2017-08-05T01:11:25.391Z,2
2017-08-05T01:12:28.915Z,2
2017-08-05T01:13:31.405Z,2
2017-08-05T01:14:33.888Z,2
2017-08-05T01:15:36.377Z,2
2017-08-05T01:16:38.857Z,2
2017-08-05T01:17:41.687Z,2
2017-08-05T01:18:44.191Z,2
2017-08-05T01:19:46.706Z,2
2017-08-05T01:20:49.536Z,2
2017-08-05T01:21:52.018Z,2
2017-08-05T01:22:54.496Z,1.9
2017-08-05T01:23:57.342Z,2
2017-08-05T01:25:00.190Z,2
2017-08-05T01:26:03.350Z,2
2017-08-05T01:27:06.184Z,1.9
2017-08-05T01:28:08.691Z,2
2017-08-05T01:29:11.177Z,2
2017-08-05T01:30:13.669Z,2
2017-08-05T01:31:16.496Z,1.9
2017-08-05T01:32:19.330Z,1.9
2017-08-05T01:33:22.158Z,2
2017-08-05T01:34:24.641Z,2
2017-08-05T01:35:27.150Z,1.9
2017-08-05T01:36:29.641Z,1.9
2017-08-05T01:37:32.120Z,2
2017-08-05T01:38:34.611Z,2
2017-08-05T01:39:37.450Z,1.9
2017-08-05T01:40:39.927Z,1.9
2017-08-05T01:41:42.421Z,1.8
2017-08-05T01:42:44.898Z,1.9
2017-08-05T01:43:48.058Z,1.9
2017-08-05T01:44:50.905Z,1.9
2017-08-05T01:45:53.729Z,1.9
2017-08-05T01:46:56.208Z,1.9
2017-08-05T01:47:58.692Z,1.9
2017-08-05T01:49:02.002Z,1.9
2017-08-05T01:50:04.512Z,1.9
2017-08-05T01:51:07.004Z,1.9
2017-08-05T01:52:09.485Z,1.9
2017-08-05T01:53:12.376Z,1.9
2017-08-05T01:54:15.219Z,1.9
2017-08-05T01:55:17.701Z,1.8
2017-08-05T01:56:20.192Z,1.9
2017-08-05T01:57:23.370Z,1.9
2017-08-05T01:58:25.868Z,1.9
2017-08-05T01:59:28.374Z,1.9
2017-08-05T02:00:31.221Z,1.9
2017-08-05T02:01:34.030Z,1.9
2017-08-05T02:02:36.853Z,1.9
2017-08-05T02:03:40.028Z,1.9
2017-08-05T02:04:42.512Z,1.9
2017-08-05T02:05:45.341Z,1.9
2017-08-05T02:06:48.193Z,1.9
2017-08-05T02:07:51.343Z,1.9
2017-08-05T02:08:53.867Z,1.9
2017-08-05T02:09:56.349Z,1.9
2017-08-05T02:10:58.829Z,1.9
2017-08-05T02:12:01.321Z,1.9
2017-08-05T02:13:03.816Z,1.9
2017-08-05T02:14:06.642Z,1.8
2017-08-05T02:15:09.138Z,1.9
2017-08-05T02:16:11.605Z,1.9
2017-08-05T02:17:14.104Z,1.9
2017-08-05T02:18:16.611Z,1.8
2017-08-05T02:19:19.118Z,1.9
2017-08-05T02:20:21.612Z,1.8
2017-08-05T02:21:24.116Z,1.8
2017-08-05T02:22:26.599Z,1.9
2017-08-05T02:23:29.093Z,1.9
2017-08-05T02:24:31.582Z,1.9
2017-08-05T02:25:34.393Z,1.8
2017-08-05T02:26:36.888Z,1.8
2017-08-05T02:27:39.718Z,1.8
2017-08-05T02:28:42.212Z,1.8
2017-08-05T02:29:44.700Z,1.8
2017-08-05T02:30:47.894Z,1.8
2017-08-05T02:31:50.731Z,1.8
2017-08-05T02:32:53.235Z,1.8
2017-08-05T02:33:56.071Z,1.8
2017-08-05T02:34:58.899Z,1.8
2017-08-05T02:36:01.383Z,1.8
2017-08-05T02:37:04.554Z,1.8
2017-08-05T02:38:07.052Z,1.8
2017-08-05T02:39:09.541Z,1.8
2017-08-05T02:40:12.737Z,1.8
2017-08-05T02:41:15.579Z,1.8
2017-08-05T02:42:18.734Z,1.8
2017-08-05T02:43:21.251Z,1.8
2017-08-05T02:44:23.745Z,1.8
2017-08-05T02:45:26.917Z,1.8
2017-08-05T02:46:30.100Z,1.8
2017-08-05T02:47:32.923Z,1.8
2017-08-05T02:48:35.418Z,1.8
2017-08-05T02:49:37.944Z,1.8
2017-08-05T02:50:41.089Z,1.8
2017-08-05T02:51:43.583Z,1.8
2017-08-05T02:52:46.425Z,1.8
2017-08-05T02:53:49.267Z,1.8
2017-08-05T02:54:52.449Z,1.8
2017-08-05T02:55:55.282Z,1.8
2017-08-05T02:56:57.767Z,1.8
2017-08-05T02:58:00.933Z,1.8
2017-08-05T02:59:03.769Z,1.8
2017-08-05T03:00:06.244Z,1.9
2017-08-05T03:01:09.430Z,1.8
2017-08-05T03:02:11.925Z,1.8
2017-08-05T03:03:15.092Z,1.8
2017-08-05T03:04:17.579Z,1.8
2017-08-05T03:05:20.423Z,1.8
2017-08-05T03:06:22.895Z,1.8
2017-08-05T03:07:25.399Z,1.8
2017-08-05T03:08:27.917Z,1.8
2017-08-05T03:09:30.403Z,1.8
2017-08-05T03:10:33.580Z,1.8
2017-08-05T03:11:36.415Z,1.8
2017-08-05T03:12:39.234Z,1.8
2017-08-05T03:13:41.733Z,1.8
2017-08-05T03:14:44.549Z,1.8
2017-08-05T03:15:47.397Z,1.8
2017-08-05T03:16:49.882Z,1.8
2017-08-05T03:17:52.376Z,1.8
2017-08-05T03:18:54.863Z,1.9
2017-08-05T03:19:57.360Z,1.8
2017-08-05T03:20:59.936Z,1.8
2017-08-05T03:22:02.794Z,1.8
2017-08-05T03:23:05.869Z,1.8
2017-08-05T03:24:08.720Z,1.7
2017-08-05T03:25:11.545Z,1.8
2017-08-05T03:26:15.061Z,1.8
2017-08-05T03:27:17.550Z,1.8
2017-08-05T03:28:20.728Z,1.8
2017-08-05T03:29:23.204Z,1.8
2017-08-05T03:30:25.724Z,1.8
2017-08-05T03:31:28.215Z,1.7
2017-08-05T03:32:31.071Z,1.8
2017-08-05T03:33:33.920Z,1.8
2017-08-05T03:34:36.407Z,1.8
2017-08-05T03:35:38.892Z,1.8
2017-08-05T03:36:41.736Z,1.8
2017-08-05T03:37:44.238Z,1.8
2017-08-05T03:38:46.719Z,1.8
2017-08-05T03:39:49.196Z,1.8
2017-08-05T03:40:52.029Z,1.8
2017-08-05T03:41:54.537Z,1.8
2017-08-05T03:42:57.016Z,1.8
2017-08-05T03:43:59.500Z,1.8
2017-08-05T03:45:02.331Z,1.8
2017-08-05T03:46:05.178Z,1.8
2017-08-05T03:47:07.670Z,1.8
2017-08-05T03:48:10.496Z,1.7
2017-08-05T03:49:13.308Z,1.8
2017-08-05T03:50:15.820Z,1.8
2017-08-05T03:51:18.994Z,1.8
2017-08-05T03:52:22.170Z,1.8
2017-08-05T03:53:24.654Z,1.8
2017-08-05T03:54:27.475Z,1.8
2017-08-05T03:55:29.948Z,1.8
2017-08-05T03:56:32.811Z,1.8
2017-08-05T03:57:35.643Z,1.8
2017-08-05T03:58:38.137Z,1.8
2017-08-05T03:59:40.620Z,1.8
2017-08-05T04:00:43.135Z,1.8
2017-08-05T04:01:45.959Z,1.8
2017-08-05T04:02:48.784Z,1.8
2017-08-05T04:03:51.264Z,1.8
2017-08-05T04:04:54.101Z,1.8
2017-08-05T04:05:56.926Z,1.8
2017-08-05T04:06:59.770Z,1.7
2017-08-05T04:08:03.275Z,1.7
2017-08-05T04:09:05.760Z,1.8
2017-08-05T04:10:08.256Z,1.8
2017-08-05T04:11:11.079Z,1.8
2017-08-05T04:12:13.926Z,1.8
2017-08-05T04:13:16.752Z,1.8
2017-08-05T04:14:19.584Z,1.8
2017-08-05T04:15:22.087Z,1.8
2017-08-05T04:16:24.566Z,1.8
2017-08-05T04:17:27.050Z,1.8
2017-08-05T04:18:29.549Z,1.8
2017-08-05T04:19:32.357Z,1.8
2017-08-05T04:20:34.861Z,1.8
2017-08-05T04:21:37.357Z,1.7
2017-08-05T04:22:39.821Z,1.8
2017-08-05T04:23:42.325Z,1.8
2017-08-05T04:24:45.510Z,1.8
2017-08-05T04:25:48.334Z,1.8
2017-08-05T04:26:51.161Z,1.7
2017-08-05T04:27:53.652Z,1.7
2017-08-05T04:28:56.149Z,1.8
2017-08-05T04:29:58.631Z,1.8
2017-08-05T04:31:01.121Z,1.8
2017-08-05T04:32:03.977Z,1.8
2017-08-05T04:33:06.472Z,1.8
2017-08-05T04:34:08.960Z,1.8
2017-08-05T04:35:11.446Z,1.8
2017-08-05T04:36:14.279Z,1.8
2017-08-05T04:37:16.769Z,1.8
2017-08-05T04:38:19.627Z,1.8
2017-08-05T04:39:22.436Z,1.8
2017-08-05T04:40:24.933Z,1.7
2017-08-05T04:41:27.422Z,1.7
2017-08-05T04:42:29.928Z,1.8
2017-08-05T04:43:32.427Z,1.8
2017-08-05T04:44:34.905Z,1.8
2017-08-05T04:45:37.741Z,1.8
2017-08-05T04:46:40.588Z,1.8
2017-08-05T04:47:43.092Z,1.8
2017-08-05T04:48:45.564Z,1.8
2017-08-05T04:49:49.616Z,1.8
2017-08-05T04:50:52.122Z,1.8
2017-08-05T04:51:54.976Z,1.7
2017-08-05T04:52:57.501Z,1.8
2017-08-05T04:54:00.649Z,1.8
2017-08-05T04:55:03.495Z,1.9
2017-08-05T04:56:05.984Z,1.8
2017-08-05T04:57:09.638Z,1.9
2017-08-05T04:58:12.129Z,1.8
2017-08-05T04:59:14.617Z,1.8
2017-08-05T05:00:18.120Z,1.8
2017-08-05T05:01:20.599Z,1.8
2017-08-05T05:02:23.449Z,1.8
2017-08-05T05:03:25.925Z,1.8
2017-08-05T05:04:28.761Z,1.9
2017-08-05T05:05:31.932Z,1.9
2017-08-05T05:06:34.449Z,1.9
2017-08-05T05:07:36.990Z,1.9
2017-08-05T05:08:39.898Z,1.9
2017-08-05T05:09:42.738Z,1.9
2017-08-05T05:10:45.242Z,1.9
2017-08-05T05:11:47.741Z,1.9
2017-08-05T05:12:50.209Z,1.9
2017-08-05T05:13:53.076Z,1.9
2017-08-05T05:14:55.953Z,1.9
2017-08-05T05:15:58.472Z,1.9
2017-08-05T05:17:00.968Z,1.9
2017-08-05T05:18:03.835Z,1.9
2017-08-05T05:19:06.685Z,1.9
2017-08-05T05:20:09.184Z,1.9
2017-08-05T05:21:11.666Z,1.9
2017-08-05T05:22:14.169Z,1.9
2017-08-05T05:23:17.027Z,1.9
2017-08-05T05:24:19.530Z,1.9
2017-08-05T05:25:22.025Z,1.9
2017-08-05T05:26:24.511Z,2
2017-08-05T05:27:26.999Z,2
2017-08-05T05:28:29.838Z,1.9
2017-08-05T05:29:32.680Z,2
2017-08-05T05:30:35.178Z,1.9
2017-08-05T05:31:37.666Z,2
2017-08-05T05:32:40.164Z,2
2017-08-05T05:33:42.646Z,1.9
2017-08-05T05:34:45.482Z,1.9
2017-08-05T05:35:47.990Z,1.9
2017-08-05T05:36:50.471Z,2
2017-08-05T05:37:53.772Z,2
2017-08-05T05:38:56.293Z,2
2017-08-05T05:39:59.125Z,2
2017-08-05T05:41:02.119Z,2
2017-08-05T05:42:05.294Z,2
2017-08-05T05:43:07.779Z,2
2017-08-05T05:44:10.269Z,2
2017-08-05T05:45:12.776Z,2.1
2017-08-05T05:46:15.968Z,2
2017-08-05T05:47:18.482Z,2
2017-08-05T05:48:20.941Z,2.1
2017-08-05T05:49:23.753Z,2.1
2017-08-05T05:50:26.201Z,2
2017-08-05T05:51:28.996Z,2.1
2017-08-05T05:52:31.588Z,2.1
2017-08-05T05:53:34.265Z,2.1
2017-08-05T05:54:37.061Z,2.1
2017-08-05T05:55:39.503Z,2.1
2017-08-05T05:56:42.656Z,2
2017-08-05T05:57:45.467Z,2.1
2017-08-05T05:58:47.932Z,2.1
2017-08-05T05:59:50.763Z,1.9
2017-08-05T06:00:53.229Z,2.1
2017-08-05T06:01:55.682Z,2.1
2017-08-05T06:02:58.484Z,2.1
2017-08-05T06:04:00.946Z,2.1
2017-08-05T06:05:04.081Z,2.1
2017-08-05T06:06:06.540Z,2.2
2017-08-05T06:07:08.987Z,2.2
2017-08-05T06:08:11.786Z,2.1
2017-08-05T06:09:14.240Z,2.2
2017-08-05T06:10:17.073Z,2.1
2017-08-05T06:11:19.540Z,2.1
2017-08-05T06:12:22.349Z,2.2
2017-08-05T06:13:25.148Z,2.2
2017-08-05T06:14:28.674Z,2.2
2017-08-05T06:15:31.148Z,2.2
2017-08-05T06:16:33.620Z,2.2
2017-08-05T06:17:36.083Z,2.1
2017-08-05T06:18:38.888Z,2.2
2017-08-05T06:19:41.345Z,2.2
2017-08-05T06:20:43.803Z,2.2
2017-08-05T06:21:46.281Z,2.2
2017-08-05T06:22:48.733Z,2.2
2017-08-05T06:23:51.199Z,2.2
2017-08-05T06:24:53.995Z,2.2
2017-08-05T06:25:56.441Z,2.3
2017-08-05T06:26:58.907Z,2.2
2017-08-05T06:28:02.718Z,2.3
2017-08-05T06:29:05.184Z,2.2
2017-08-05T06:30:08.326Z,2.2
2017-08-05T06:31:11.121Z,2.3
2017-08-05T06:32:13.573Z,2.3
2017-08-05T06:33:16.388Z,2.3
2017-08-05T06:34:19.164Z,2.2
2017-08-05T06:35:21.646Z,2.2
2017-08-05T06:36:24.088Z,2.2
2017-08-05T06:37:26.549Z,2.2
2017-08-05T06:38:29.375Z,2.3
2017-08-05T06:39:31.841Z,2.3
2017-08-05T06:40:34.634Z,2.2
2017-08-05T06:41:37.096Z,2.3
2017-08-05T06:42:39.564Z,2.2
2017-08-05T06:43:42.024Z,2.3
2017-08-05T06:44:44.481Z,2.3
2017-08-05T06:45:47.613Z,2.3
2017-08-05T06:46:50.073Z,2.3
2017-08-05T06:47:52.521Z,2.3
2017-08-05T06:48:54.982Z,2.3
2017-08-05T06:49:57.425Z,2.2
2017-08-05T06:50:59.878Z,2.3
2017-08-05T06:52:02.673Z,2.3
2017-08-05T06:53:05.489Z,2.3
2017-08-05T06:54:07.939Z,2.3
2017-08-05T06:55:10.395Z,2.4
2017-08-05T06:56:12.859Z,2.3
2017-08-05T06:57:15.683Z,2.4
2017-08-05T06:58:18.472Z,2.3
2017-08-05T06:59:21.272Z,2.4
2017-08-05T07:00:24.077Z,2.4
2017-08-05T07:01:26.525Z,2.4
2017-08-05T07:02:28.988Z,2.4
2017-08-05T07:03:31.449Z,2.4
2017-08-05T07:04:34.261Z,2.4
2017-08-05T07:05:37.402Z,2.3
2017-08-05T07:06:39.876Z,2.4
2017-08-05T07:07:42.355Z,2.4
2017-08-05T07:08:44.826Z,2.4
2017-08-05T07:09:47.611Z,2.4
2017-08-05T07:10:50.077Z,2.4
2017-08-05T07:11:52.538Z,2.4
2017-08-05T07:12:54.994Z,2.4
2017-08-05T07:13:57.442Z,2.4
2017-08-05T07:14:59.900Z,2.4
2017-08-05T07:16:03.016Z,2.5
2017-08-05T07:17:05.836Z,2.5
2017-08-05T07:18:08.637Z,2.5
2017-08-05T07:19:11.070Z,2.5
2017-08-05T07:20:13.553Z,2.5
2017-08-05T07:21:16.010Z,2.5
2017-08-05T07:22:18.470Z,2.5
2017-08-05T07:23:21.263Z,2.5
2017-08-05T07:24:24.052Z,2.6
2017-08-05T07:25:26.503Z,2.5
2017-08-05T07:26:28.972Z,2.6
2017-08-05T07:27:31.415Z,2.5
2017-08-05T07:28:33.893Z,2.6
2017-08-05T07:29:36.343Z,2.6
2017-08-05T07:30:38.811Z,2.6
2017-08-05T07:31:41.269Z,2.6
2017-08-05T07:32:44.093Z,2.6
2017-08-05T07:33:46.560Z,2.6
2017-08-05T07:34:49.366Z,2.6
2017-08-05T07:35:52.173Z,2.6
2017-08-05T07:36:54.967Z,2.6
2017-08-05T07:37:57.428Z,2.6
2017-08-05T07:38:59.884Z,2.6
2017-08-05T07:40:02.679Z,2.6
2017-08-05T07:41:05.456Z,2.6
2017-08-05T07:42:07.935Z,2.6
2017-08-05T07:43:10.383Z,2.6
2017-08-05T07:44:13.183Z,2.6
2017-08-05T07:45:15.638Z,2.6
2017-08-05T07:46:18.444Z,2.6
2017-08-05T07:47:20.899Z,2.6
2017-08-05T07:48:23.691Z,2.6
2017-08-05T07:49:26.153Z,2.6
2017-08-05T07:50:28.962Z,2.7
2017-08-05T07:51:31.413Z,2.7
2017-08-05T07:52:33.871Z,2.7
2017-08-05T07:53:36.676Z,2.6
2017-08-05T07:54:39.140Z,2.7
2017-08-05T07:55:41.588Z,2.7
2017-08-05T07:56:44.041Z,2.7
2017-08-05T07:57:46.512Z,2.6
2017-08-05T07:58:48.966Z,2.7
2017-08-05T07:59:52.434Z,2.7
2017-08-05T08:00:54.906Z,2.6
2017-08-05T08:01:57.373Z,2.7
2017-08-05T08:02:59.826Z,2.7
2017-08-05T08:04:02.654Z,2.7
2017-08-05T08:05:05.118Z,2.7
2017-08-05T08:06:07.576Z,2.7
2017-08-05T08:07:10.046Z,2.7
2017-08-05T08:08:12.495Z,2.7
2017-08-05T08:09:14.977Z,2.7
2017-08-05T08:10:17.776Z,2.7
2017-08-05T08:11:20.564Z,2.8
2017-08-05T08:12:23.372Z,2.7
2017-08-05T08:13:26.171Z,2.8
2017-08-05T08:14:28.635Z,2.8
2017-08-05T08:15:31.092Z,2.7
2017-08-05T08:16:33.573Z,2.8
2017-08-05T08:17:36.363Z,2.7
2017-08-05T08:18:39.147Z,2.8
2017-08-05T08:19:41.609Z,2.8
2017-08-05T08:20:44.410Z,2.8
2017-08-05T08:21:46.868Z,2.7
2017-08-05T08:22:49.678Z,2.8
2017-08-05T08:23:52.477Z,2.8
2017-08-05T08:24:55.293Z,2.8
2017-08-05T08:25:58.100Z,2.8
2017-08-05T08:27:00.550Z,2.8
2017-08-05T08:28:03.008Z,2.8
2017-08-05T08:29:05.465Z,2.8
2017-08-05T08:30:08.277Z,2.7
2017-08-05T08:31:10.731Z,2.8
2017-08-05T08:32:13.216Z,2.9
2017-08-05T08:33:15.674Z,2.9
2017-08-05T08:34:18.133Z,2.8
2017-08-05T08:35:20.589Z,2.8
2017-08-05T08:36:23.045Z,2.9
2017-08-05T08:37:25.509Z,2.9
2017-08-05T08:38:28.301Z,2.9
2017-08-05T08:39:30.754Z,2.9
2017-08-05T08:40:33.246Z,2.9
2017-08-05T08:41:35.715Z,2.9
2017-08-05T08:42:38.155Z,2.9
2017-08-05T08:43:40.612Z,2.9
2017-08-05T08:44:43.089Z,2.9
2017-08-05T08:45:45.555Z,2.9
2017-08-05T08:46:48.010Z,2.9
2017-08-05T08:47:50.797Z,2.9
2017-08-05T08:48:53.265Z,2.9
2017-08-05T08:49:55.731Z,2.9
2017-08-05T08:50:58.532Z,2.9
2017-08-05T08:52:00.978Z,2.9
2017-08-05T08:53:04.452Z,3
2017-08-05T08:54:07.269Z,3
2017-08-05T08:55:09.721Z,3
2017-08-05T08:56:12.855Z,3
2017-08-05T08:57:15.319Z,3
2017-08-05T08:58:18.114Z,2.9
2017-08-05T08:59:20.564Z,3
2017-08-05T09:00:23.037Z,3
2017-08-05T09:01:25.849Z,3
2017-08-05T09:02:28.337Z,3
2017-08-05T09:03:31.134Z,3
2017-08-05T09:04:33.605Z,2.9
2017-08-05T09:05:36.062Z,3.1
2017-08-05T09:06:38.893Z,3.1
2017-08-05T09:07:41.702Z,3
2017-08-05T09:08:44.167Z,3
2017-08-05T09:09:46.627Z,3
2017-08-05T09:10:49.082Z,3
2017-08-05T09:11:51.541Z,3
2017-08-05T09:12:54.018Z,3
2017-08-05T09:13:56.453Z,3
2017-08-05T09:14:58.918Z,3.1
2017-08-05T09:16:01.393Z,3
2017-08-05T09:17:04.211Z,3
2017-08-05T09:18:07.686Z,3
2017-08-05T09:19:10.475Z,3
2017-08-05T09:20:12.925Z,3
2017-08-05T09:21:16.099Z,3.1
2017-08-05T09:22:18.554Z,3.1
2017-08-05T09:23:21.006Z,3.1
2017-08-05T09:24:23.459Z,3
2017-08-05T09:25:26.608Z,3.1
2017-08-05T09:26:29.075Z,3.1
2017-08-05T09:27:31.871Z,3
2017-08-05T09:28:34.701Z,3.1
2017-08-05T09:29:37.173Z,3
2017-08-05T09:30:39.951Z,3
2017-08-05T09:31:42.436Z,3.1
2017-08-05T09:32:44.892Z,3
2017-08-05T09:33:47.345Z,3
2017-08-05T09:34:49.807Z,3
2017-08-05T09:35:52.262Z,3
2017-08-05T09:36:54.723Z,3
2017-08-05T09:37:57.528Z,2.9
2017-08-05T09:39:00.323Z,3
2017-08-05T09:40:03.466Z,3
2017-08-05T09:41:05.935Z,3
2017-08-05T09:42:08.733Z,3
2017-08-05T09:43:11.192Z,3
2017-08-05T09:44:13.659Z,2.9
2017-08-05T09:45:16.099Z,3
2017-08-05T09:46:18.563Z,3
2017-08-05T09:47:21.022Z,3
2017-08-05T09:48:24.144Z,3
2017-08-05T09:49:27.303Z,3
2017-08-05T09:50:29.756Z,2.9
2017-08-05T09:51:32.543Z,2.9
2017-08-05T09:52:35.002Z,3
2017-08-05T09:53:37.464Z,2.8
2017-08-05T09:54:39.926Z,2.9
2017-08-05T09:55:42.392Z,2.9
2017-08-05T09:56:45.190Z,3
2017-08-05T09:57:47.991Z,2.9
2017-08-05T09:58:50.438Z,3
2017-08-05T09:59:52.910Z,3
2017-08-05T10:00:55.726Z,2.9
2017-08-05T10:01:58.181Z,3
2017-08-05T10:03:00.979Z,2.9
2017-08-05T10:04:03.785Z,3
2017-08-05T10:05:06.932Z,2.9
2017-08-05T10:06:09.401Z,3
2017-08-05T10:07:11.855Z,2.9
2017-08-05T10:08:14.311Z,2.9
2017-08-05T10:09:16.775Z,2.9
2017-08-05T10:10:19.227Z,2.9
2017-08-05T10:11:22.035Z,2.9
2017-08-05T10:12:24.503Z,2.9
2017-08-05T10:13:27.292Z,3
2017-08-05T10:14:29.753Z,3
2017-08-05T10:15:32.213Z,3
2017-08-05T10:16:34.667Z,3
2017-08-05T10:17:37.466Z,3
2017-08-05T10:18:40.617Z,2.9
2017-08-05T10:19:43.409Z,3
2017-08-05T10:20:46.557Z,3
2017-08-05T10:21:49.016Z,3
2017-08-05T10:22:51.462Z,3
2017-08-05T10:23:53.930Z,3
2017-08-05T10:24:56.390Z,3
2017-08-05T10:25:58.859Z,3
2017-08-05T10:27:01.650Z,3
2017-08-05T10:28:04.475Z,2.9
2017-08-05T10:29:07.275Z,2.9
2017-08-05T10:30:10.416Z,2.9
2017-08-05T10:31:13.212Z,3
2017-08-05T10:32:16.017Z,3
2017-08-05T10:33:18.492Z,3
2017-08-05T10:34:20.971Z,3
2017-08-05T10:35:23.775Z,2.9
2017-08-05T10:36:26.577Z,2.9
2017-08-05T10:37:29.042Z,2.9
2017-08-05T10:38:31.503Z,3
2017-08-05T10:39:33.944Z,3
2017-08-05T10:40:36.755Z,2.9
2017-08-05T10:41:39.567Z,3
2017-08-05T10:42:42.031Z,3
2017-08-05T10:43:44.825Z,3
2017-08-05T10:44:47.269Z,3
2017-08-05T10:45:50.075Z,2.9
2017-08-05T10:46:52.548Z,3
2017-08-05T10:47:55.342Z,3
2017-08-05T10:48:58.146Z,2.9
2017-08-05T10:50:00.949Z,3
2017-08-05T10:51:04.090Z,3
2017-08-05T10:52:06.899Z,3
2017-08-05T10:53:10.033Z,2.9
2017-08-05T10:54:12.494Z,3
2017-08-05T10:55:14.969Z,3
2017-08-05T10:56:17.425Z,3
2017-08-05T10:57:20.583Z,3
2017-08-05T10:58:23.395Z,3
2017-08-05T10:59:25.852Z,3
2017-08-05T11:00:28.304Z,3
2017-08-05T11:01:30.778Z,3
2017-08-05T11:02:33.230Z,3
2017-08-05T11:03:36.033Z,2.9
2017-08-05T11:04:39.198Z,3
2017-08-05T11:05:42.002Z,3
2017-08-05T11:06:44.804Z,3
2017-08-05T11:07:47.633Z,2.9
2017-08-05T11:08:50.097Z,3
2017-08-05T11:09:52.590Z,3
2017-08-05T11:10:55.377Z,3
2017-08-05T11:12:49.546Z,3
2017-08-05T11:13:52.061Z,3
2017-08-05T11:14:54.630Z,3
2017-08-05T11:15:57.151Z,3
2017-08-05T11:16:59.676Z,2.9
2017-08-05T11:18:03.218Z,3
2017-08-05T11:19:06.424Z,3
2017-08-05T11:20:08.966Z,2.9
2017-08-05T11:21:11.508Z,3
2017-08-05T11:22:14.080Z,2.9
2017-08-05T11:23:16.611Z,2.9
2017-08-05T11:24:19.199Z,2.9
2017-08-05T11:25:22.424Z,2.9
2017-08-05T11:26:24.960Z,3
2017-08-05T11:27:27.476Z,3
2017-08-05T11:28:30.340Z,3
2017-08-05T11:29:32.857Z,3
2017-08-05T11:30:35.741Z,2.9
2017-08-05T11:31:38.261Z,2.8
2017-08-05T11:32:40.831Z,3
2017-08-05T11:33:43.673Z,2.9
2017-08-05T11:34:46.846Z,2.9
2017-08-05T11:35:49.352Z,2.9
2017-08-05T11:36:51.857Z,2.9
2017-08-05T11:37:54.347Z,2.9
2017-08-05T11:38:56.858Z,2.9
2017-08-05T11:39:59.353Z,3
2017-08-05T11:41:01.852Z,2.9
2017-08-05T11:42:04.708Z,2.9
2017-08-05T11:43:07.201Z,2.9
2017-08-05T11:44:10.054Z,2.9
2017-08-05T11:45:12.905Z,2.9
2017-08-05T11:46:15.433Z,2.9
2017-08-05T11:47:17.930Z,2.9
2017-08-05T11:48:20.771Z,2.9
2017-08-05T11:49:23.282Z,2.9
2017-08-05T11:50:25.797Z,2.9
2017-08-05T11:51:28.323Z,2.9
2017-08-05T11:52:30.810Z,2.9
2017-08-05T11:53:33.315Z,2.9
2017-08-05T11:54:36.163Z,2.9
2017-08-05T11:55:41.729Z,2.9
2017-08-05T11:56:44.928Z,2.9
2017-08-05T11:57:47.792Z,2.9
2017-08-05T11:58:50.291Z,2.9
2017-08-05T11:59:52.858Z,2.9
2017-08-05T12:00:55.350Z,2.9
2017-08-05T12:01:57.867Z,2.9
2017-08-05T12:03:00.715Z,2.9
2017-08-05T12:04:04.264Z,2.9
2017-08-05T12:05:06.777Z,2.9
2017-08-05T12:06:09.613Z,2.9
2017-08-05T12:07:12.155Z,2.9
2017-08-05T12:08:14.658Z,2.9
2017-08-05T12:09:17.176Z,2.9
2017-08-05T12:10:19.674Z,3
2017-08-05T12:11:22.189Z,2.9
2017-08-05T12:12:24.704Z,2.9
2017-08-05T12:13:27.204Z,2.9
2017-08-05T12:14:29.709Z,3
2017-08-05T12:15:32.207Z,3
2017-08-05T12:16:34.704Z,3
2017-08-05T12:17:37.888Z,2.8
2017-08-05T12:18:40.310Z,2.9
2017-08-05T12:19:42.741Z,2.9
2017-08-05T12:20:45.185Z,2.9
2017-08-05T12:21:47.628Z,2.9
2017-08-05T12:22:50.047Z,2.9
2017-08-05T12:23:52.475Z,3
2017-08-05T12:24:55.260Z,2.9
2017-08-05T12:25:58.025Z,2.9
2017-08-05T12:27:00.802Z,2.9
2017-08-05T12:28:03.254Z,2.9
2017-08-05T12:29:05.681Z,2.9
2017-08-05T12:30:08.457Z,2.9
2017-08-05T12:31:11.231Z,2.9
2017-08-05T12:32:13.657Z,2.9
2017-08-05T12:33:16.111Z,2.9
2017-08-05T12:34:18.548Z,2.9
2017-08-05T12:35:20.996Z,2.9
2017-08-05T12:36:23.767Z,2.9
2017-08-05T12:37:26.199Z,2.9
2017-08-05T12:38:28.635Z,2.9
2017-08-05T12:39:31.059Z,2.9
2017-08-05T12:40:33.510Z,2.9
2017-08-05T12:41:36.241Z,2.9
2017-08-05T12:42:39.021Z,2.8
2017-08-05T12:43:41.807Z,2.8
2017-08-05T12:44:44.938Z,2.9
2017-08-05T12:45:47.382Z,2.9
2017-08-05T12:46:50.169Z,2.8
2017-08-05T12:47:52.936Z,2.8
2017-08-05T12:48:55.377Z,2.9
2017-08-05T12:49:57.810Z,2.8
2017-08-05T12:51:00.234Z,2.9
2017-08-05T12:52:03.002Z,2.9
2017-08-05T12:53:05.437Z,2.9
2017-08-05T12:54:08.186Z,2.9
2017-08-05T12:55:10.623Z,2.9
2017-08-05T12:56:13.396Z,2.8
2017-08-05T12:57:15.841Z,2.9
2017-08-05T12:58:18.618Z,2.9
2017-08-05T12:59:21.062Z,2.9
2017-08-05T13:00:23.834Z,2.9
2017-08-05T13:01:26.263Z,2.9
2017-08-05T13:02:28.701Z,3
2017-08-05T13:03:31.469Z,2.9
2017-08-05T13:04:34.254Z,2.9
2017-08-05T13:05:36.687Z,2.9
2017-08-05T13:06:39.114Z,2.9
2017-08-05T13:07:41.882Z,2.9
2017-08-05T13:08:44.328Z,2.9
2017-08-05T13:09:47.090Z,3
2017-08-05T13:10:49.554Z,2.9
2017-08-05T13:11:52.321Z,2.9
2017-08-05T13:12:54.740Z,3
2017-08-05T13:13:57.171Z,2.9
2017-08-05T13:14:59.601Z,3
2017-08-05T13:16:02.713Z,2.9
2017-08-05T13:17:05.851Z,3
2017-08-05T13:18:08.270Z,2.9
2017-08-05T13:19:10.704Z,3
2017-08-05T13:20:13.470Z,2.9
2017-08-05T13:21:15.887Z,2.9
2017-08-05T13:22:18.337Z,3
2017-08-05T13:23:20.772Z,2.9
2017-08-05T13:24:23.213Z,3
2017-08-05T13:25:25.629Z,2.9
2017-08-05T13:26:28.394Z,2.9
2017-08-05T13:27:31.170Z,2.9
2017-08-05T13:28:33.600Z,2.9
2017-08-05T13:29:36.034Z,2.9
2017-08-05T13:30:38.463Z,2.9
2017-08-05T13:31:40.879Z,2.9
2017-08-05T13:32:43.317Z,2.9
2017-08-05T13:33:46.072Z,2.9
2017-08-05T13:34:49.164Z,2.9
2017-08-05T13:35:51.589Z,3
2017-08-05T13:36:54.003Z,2.9
2017-08-05T13:37:56.418Z,3
2017-08-05T13:38:59.177Z,3
2017-08-05T13:40:02.632Z,2.9
2017-08-05T13:41:05.405Z,3
2017-08-05T13:42:08.857Z,2.9
2017-08-05T13:43:11.634Z,2.9
2017-08-05T13:44:14.049Z,2.9
2017-08-05T13:45:17.168Z,2.8
2017-08-05T13:46:19.604Z,2.8
2017-08-05T13:47:22.383Z,2.9
2017-08-05T13:48:24.820Z,2.8
2017-08-05T13:49:27.928Z,2.8
2017-08-05T13:50:30.700Z,2.8
2017-08-05T13:51:33.140Z,2.9
2017-08-05T13:52:35.559Z,2.8
2017-08-05T13:53:37.985Z,2.8
2017-08-05T13:54:40.410Z,2.8
2017-08-05T13:55:42.843Z,2.8
2017-08-05T13:56:45.255Z,2.8
2017-08-05T13:57:48.015Z,2.8
2017-08-05T13:58:50.454Z,2.8
2017-08-05T13:59:52.876Z,2.9
2017-08-05T14:00:55.296Z,2.8
2017-08-05T14:01:57.714Z,2.9
2017-08-05T14:03:00.510Z,2.9
2017-08-05T14:04:03.276Z,2.9
2017-08-05T14:05:06.061Z,2.9
2017-08-05T14:06:09.159Z,2.8
2017-08-05T14:07:11.921Z,2.8
2017-08-05T14:08:14.383Z,2.8
2017-08-05T14:09:17.816Z,2.8
2017-08-05T14:10:20.916Z,2.8
2017-08-05T14:11:23.337Z,2.9
2017-08-05T14:12:25.752Z,2.8
2017-08-05T14:13:28.171Z,2.9
2017-08-05T14:14:30.596Z,2.9
2017-08-05T14:15:33.358Z,2.9
2017-08-05T14:16:36.139Z,2.9
2017-08-05T14:17:38.570Z,2.9
2017-08-05T14:18:40.986Z,2.9
2017-08-05T14:19:43.418Z,2.9
2017-08-05T14:20:46.202Z,2.9
2017-08-05T14:21:48.622Z,2.9
2017-08-05T14:22:51.407Z,2.8
2017-08-05T14:23:54.172Z,2.9
2017-08-05T14:24:57.270Z,3
2017-08-05T14:25:59.699Z,2.9
2017-08-05T14:27:02.135Z,3
2017-08-05T14:28:04.568Z,2.9
2017-08-05T14:29:06.990Z,3
2017-08-05T14:30:09.424Z,2.9
2017-08-05T14:31:12.534Z,2.9
2017-08-05T14:32:14.962Z,2.9
2017-08-05T14:33:17.388Z,2.9
2017-08-05T14:34:19.816Z,3
2017-08-05T14:35:22.244Z,2.9
2017-08-05T14:36:24.663Z,2.9
2017-08-05T14:37:27.427Z,2.9
2017-08-05T14:38:29.865Z,3
2017-08-05T14:39:32.971Z,2.9